Aeroporto :
LOGIN :

Iscrizione | Disclaimer

   EN    FR    IT 

 










Sommario :    VFR   VFR Marginale   IFR   IFR Intensivo   IFR Molto Intensivo
Visibilità : 
Base nubi : 
>= 8 km
>= 3000ft
5 / 8 km
1000 / 3000 ft
1500m / 5 km
500 / 1000 ft
800 / 1500m
200 / 500 ft
< 800m
< 200 ft
Simboli :   Temporali  Nebbia  Neve Forte  Precipitazioni Forti  Vento > 20 kt
SIGMETs :   Varie  Temporali  Ghiacco  Turbolenza  Onda orograficha  Ceneri Vulcaniche






- Altitudine del aeroporto : 375 ft
- Codice IATA : MST


EHBK - Maastricht Aachen

ULTIMO METAR :
  • 301125Z AUTO 27011G21KT 230V330 9999 FEW022 SCT026 BKN029 07/03 Q1019 BECMG 30015G25KT

METARs OBSOLETI :
  • 301055Z AUTO 28010KT 210V340 9999 FEW019 SCT024 BKN028 07/03 Q1019 BECMG 30015G25KT
  • 301025Z AUTO 26011KT 220V310 9999 FEW018 SCT028 07/03 Q1019 BECMG 30015G25KT
  • 300955Z AUTO 26011KT 210V300 9999 SCT015 BKN018 OVC021 07/04 Q1019 BECMG 30015G25KT
  • 300925Z AUTO 26010KT 220V320 9999 FEW015 07/04 Q1019 BECMG 30015G25KT
  • 300855Z AUTO 26010KT 210V320 9999 FEW007/// SCT011/// BKN013/// 06/05 Q1019 BECMG 30015G25KT FEW018 BKN030

TAF TAF EHBK
Valido dal 30 a 06 ore il 31 a 12 ore UTC


300524Z 3006/3112 25014KT 6000 BKN007
PROB40 3006/3008 4000 BR -DZRA BKN004
PROB30
TEMPO 3006/3008 2000 DZRA BKN002
BECMG 3007/3010 28015KT 9999 SCT025
BECMG 3020/3023 24008KT
PROB30
TEMPO 3110/3112 7000 -RADZ BKN014



MetMap, La meteo Aeronautica in un colpo d'occhio ! - Copyright ORBIFLY Dicembre 2007 - Disclaimer

ORBIFLY MET'MAP TEAM :

Programmazione e sviluppo : Alexandra Zaïnal
Concezione : Baudouin d'Aumeries
Supporto tecnico e logistico : Manuel Goepfert
Aiuto : Marc-Olivier Méhu
Aiuto per la traduzione : Arnaldo La Scala




FONTI E CREDITI :

   NOAA